Time;durP1;ratioP1;P1;durP2;ratioP2;P2;SDS_P1;SDS_P2;PMS_P1;PMS_P2;Temp;Humidity;BMP_temperature;BMP_pressure;BME280_temperature;BME280_humidity;BME280_pressure;Samples;Min_cycle;Max_cycle;Signal;HPM_P1;HPM_P2
2023/03/24 00:02:17;;;;;;;12.10;11.10;;;;;;;;;;4996927;28;20026;-54
2023/03/24 00:04:42;;;;;;;12.05;11.35;;;;;;;;;;4994670;28;20040;-52
2023/03/24 00:07:13;;;;;;;12.45;11.65;;;;;;;;;;4994970;28;20457;-50
2023/03/24 00:09:42;;;;;;;12.02;11.10;;;;;;;;;;4994340;28;20029;-54
2023/03/24 00:12:09;;;;;;;10.98;10.32;;;;;;;;;;4995860;28;20121;-53
2023/03/24 00:14:37;;;;;;;12.60;11.90;;;;;;;;;;4992869;28;20370;-53
2023/03/24 00:17:04;;;;;;;11.32;10.63;;;;;;;;;;4994523;28;20354;-52
2023/03/24 00:19:29;;;;;;;10.95;10.25;;;;;;;;;;4993228;28;20042;-53
2023/03/24 00:21:55;;;;;;;11.57;10.88;;;;;;;;;;4994027;28;20061;-51
2023/03/24 00:24:20;;;;;;;11.07;10.38;;;;;;;;;;4995811;28;20034;-53
2023/03/24 00:26:47;;;;;;;11.98;11.27;;;;;;;;;;4993905;28;20034;-52
2023/03/24 00:29:13;;;;;;;11.35;10.65;;;;;;;;;;4992960;28;20026;-53
2023/03/24 00:31:38;;;;;;;11.23;10.52;;;;;;;;;;4993254;28;20041;-50
2023/03/24 00:34:07;;;;;;;10.60;9.93;;;;;;;;;;4994964;28;20569;-49
2023/03/24 00:36:33;;;;;;;11.50;10.80;;;;;;;;;;4994738;28;20030;-51
2023/03/24 00:38:59;;;;;;;10.05;9.45;;;;;;;;;;4991789;28;20045;-52
2023/03/24 00:41:26;;;;;;;11.15;10.45;;;;;;;;;;4994775;28;20599;-49
2023/03/24 00:43:57;;;;;;;12.32;10.98;;;;;;;;;;4992559;28;20072;-50
2023/03/24 00:46:29;;;;;;;11.20;10.50;;;;;;;;;;4993133;28;20045;-50
2023/03/24 00:49:04;;;;;;;12.20;11.40;;;;;;;;;;4993048;28;20048;-51
2023/03/24 00:51:38;;;;;;;11.65;10.85;;;;;;;;;;4993638;28;20499;-50
2023/03/24 00:54:05;;;;;;;11.38;10.68;;;;;;;;;;4994585;28;20061;-49
2023/03/24 00:56:33;;;;;;;11.95;11.25;;;;;;;;;;4993611;28;20113;-52
2023/03/24 00:59:00;;;;;;;11.57;10.88;;;;;;;;;;4993849;28;20587;-54
2023/03/24 01:01:28;;;;;;;11.75;11.05;;;;;;;;;;4993241;28;20034;-50
2023/03/24 01:03:55;;;;;;;11.80;11.10;;;;;;;;;;4994598;28;20033;-53
2023/03/24 01:06:22;;;;;;;11.85;11.05;;;;;;;;;;4993690;28;20447;-53
2023/03/24 01:08:52;;;;;;;13.65;12.85;;;;;;;;;;4995852;28;20041;-50
2023/03/24 01:11:19;;;;;;;12.25;11.23;;;;;;;;;;4993755;28;20518;-53
2023/03/24 01:13:44;;;;;;;10.90;10.20;;;;;;;;;;4993541;28;20376;-50
2023/03/24 01:16:10;;;;;;;11.52;10.82;;;;;;;;;;4996231;28;20029;-51
2023/03/24 01:18:39;;;;;;;11.38;10.68;;;;;;;;;;4995318;28;20040;-51
2023/03/24 01:21:06;;;;;;;11.90;11.18;;;;;;;;;;4994377;28;20070;-50
2023/03/24 01:23:31;;;;;;;11.27;10.57;;;;;;;;;;4993151;28;20030;-52
2023/03/24 01:25:56;;;;;;;12.07;11.38;;;;;;;;;;4992799;28;20049;-54
2023/03/24 01:28:23;;;;;;;12.27;11.48;;;;;;;;;;4993030;28;20483;-50
2023/03/24 01:30:53;;;;;;;11.77;11.07;;;;;;;;;;4994509;28;20031;-54
2023/03/24 01:33:19;;;;;;;11.13;10.43;;;;;;;;;;4995577;28;20191;-53
2023/03/24 01:35:45;;;;;;;11.60;10.90;;;;;;;;;;4994674;28;20674;-51
2023/03/24 01:38:12;;;;;;;11.88;11.18;;;;;;;;;;4991027;28;20084;-51
2023/03/24 01:40:41;;;;;;;11.75;11.00;;;;;;;;;;4993515;28;20037;-50
2023/03/24 01:43:17;;;;;;;11.57;10.88;;;;;;;;;;4994973;28;20061;-54
2023/03/24 01:45:57;;;;;;;11.88;11.18;;;;;;;;;;4993869;28;20026;-52
2023/03/24 01:48:29;;;;;;;11.63;10.93;;;;;;;;;;4989948;28;20030;-55
2023/03/24 01:51:04;;;;;;;11.48;10.77;;;;;;;;;;4993317;28;20088;-52
2023/03/24 01:53:31;;;;;;;11.40;10.70;;;;;;;;;;4992515;28;20048;-54
2023/03/24 01:55:59;;;;;;;11.07;10.38;;;;;;;;;;4999864;28;20034;-54
2023/03/24 01:58:28;;;;;;;11.10;10.40;;;;;;;;;;4994562;28;20065;-54
2023/03/24 02:00:54;;;;;;;11.98;11.27;;;;;;;;;;5001059;28;20068;-51
2023/03/24 02:03:22;;;;;;;11.90;11.20;;;;;;;;;;4997357;28;20065;-46
2023/03/24 02:05:50;;;;;;;12.73;11.93;;;;;;;;;;4997503;28;20036;-49
2023/03/24 02:08:45;;;;;;;12.10;11.30;;;;;;;;;;4999647;28;20443;-46
2023/03/24 02:11:11;;;;;;;11.40;10.60;;;;;;;;;;4996106;28;20030;-47
2023/03/24 02:13:37;;;;;;;11.43;10.73;;;;;;;;;;4996005;28;20030;-48
2023/03/24 02:16:29;;;;;;;11.35;10.55;;;;;;;;;;4996939;28;20044;-47
2023/03/24 02:19:36;;;;;;;10.70;10.05;;;;;;;;;;4993123;28;20894;-49
2023/03/24 02:22:02;;;;;;;10.77;10.10;;;;;;;;;;4995777;28;20029;-49
2023/03/24 02:24:51;;;;;;;11.80;11.10;;;;;;;;;;4995347;28;20030;-51
2023/03/24 02:27:28;;;;;;;12.25;11.38;;;;;;;;;;4995458;28;20129;-54
2023/03/24 02:30:03;;;;;;;11.23;10.52;;;;;;;;;;4994928;28;20026;-49
2023/03/24 02:32:51;;;;;;;11.70;10.88;;;;;;;;;;5007710;28;20349;-52
2023/03/24 02:35:53;;;;;;;11.98;11.07;;;;;;;;;;4995561;28;20508;-48
2023/03/24 02:38:29;;;;;;;11.38;10.68;;;;;;;;;;4997501;28;20467;-48
2023/03/24 02:41:14;;;;;;;11.68;10.77;;;;;;;;;;4997080;28;20046;-49
2023/03/24 02:43:50;;;;;;;11.40;10.70;;;;;;;;;;4997060;28;20045;-51
2023/03/24 02:46:26;;;;;;;11.85;11.05;;;;;;;;;;4995579;28;20041;-50
2023/03/24 02:49:02;;;;;;;11.98;11.27;;;;;;;;;;4993568;28;20033;-51
2023/03/24 02:51:33;;;;;;;11.23;10.52;;;;;;;;;;4998596;28;20360;-53
2023/03/24 02:54:24;;;;;;;10.80;10.10;;;;;;;;;;4993627;28;20471;-48
2023/03/24 02:56:59;;;;;;;10.77;10.10;;;;;;;;;;5000441;28;20038;-50
2023/03/24 02:59:40;;;;;;;19.38;11.55;;;;;;;;;;4993330;28;20045;-48
2023/03/24 03:02:11;;;;;;;11.73;11.02;;;;;;;;;;4994228;28;20038;-45
2023/03/24 03:04:45;;;;;;;11.18;10.48;;;;;;;;;;4996017;28;20092;-55
2023/03/24 03:07:15;;;;;;;11.70;11.00;;;;;;;;;;4994643;28;20044;-53
2023/03/24 03:09:47;;;;;;;10.57;9.88;;;;;;;;;;4997530;28;20030;-53
2023/03/24 03:12:14;;;;;;;11.38;10.68;;;;;;;;;;4991114;28;20037;-53
2023/03/24 03:14:46;;;;;;;11.15;10.45;;;;;;;;;;4993307;28;20038;-51
2023/03/24 03:17:19;;;;;;;11.40;10.70;;;;;;;;;;4995565;28;20034;-50
2023/03/24 03:19:56;;;;;;;10.90;10.20;;;;;;;;;;4995426;28;20218;-53
2023/03/24 03:22:26;;;;;;;10.73;10.13;;;;;;;;;;4996264;28;20570;-52
2023/03/24 03:24:55;;;;;;;10.70;10.00;;;;;;;;;;4992708;28;20480;-52
2023/03/24 03:27:27;;;;;;;11.23;10.52;;;;;;;;;;4998605;28;20034;-52
2023/03/24 03:30:04;;;;;;;11.50;10.60;;;;;;;;;;4993029;28;20084;-54
2023/03/24 03:32:34;;;;;;;10.90;10.23;;;;;;;;;;4993096;28;20058;-52
2023/03/24 03:34:59;;;;;;;11.82;11.13;;;;;;;;;;4993905;28;20104;-54
2023/03/24 03:37:33;;;;;;;11.45;10.75;;;;;;;;;;5001041;28;20054;-53
2023/03/24 03:40:13;;;;;;;10.95;10.25;;;;;;;;;;4994853;28;20035;-53
2023/03/24 03:42:39;;;;;;;12.57;11.77;;;;;;;;;;4994932;28;20030;-51
2023/03/24 03:45:08;;;;;;;10.43;9.82;;;;;;;;;;4996179;28;20069;-53
2023/03/24 03:47:34;;;;;;;11.25;10.55;;;;;;;;;;4993815;28;20046;-51
2023/03/24 03:50:00;;;;;;;11.60;10.90;;;;;;;;;;4993847;28;20506;-51
2023/03/24 03:52:25;;;;;;;11.90;11.10;;;;;;;;;;4992083;28;20045;-50
2023/03/24 03:54:51;;;;;;;11.05;10.35;;;;;;;;;;4993137;28;20034;-50
2023/03/24 03:57:18;;;;;;;12.02;11.23;;;;;;;;;;4995288;28;20037;-53
2023/03/24 03:59:44;;;;;;;11.43;10.73;;;;;;;;;;4993464;28;20101;-52
2023/03/24 04:02:33;;;;;;;11.75;11.05;;;;;;;;;;4995802;28;20034;-54
2023/03/24 04:05:14;;;;;;;11.55;10.80;;;;;;;;;;4996714;28;20030;-52
2023/03/24 04:07:56;;;;;;;11.90;11.18;;;;;;;;;;4993155;28;20425;-53
2023/03/24 04:10:54;;;;;;;12.18;11.48;;;;;;;;;;4993968;28;20080;-52
2023/03/24 04:14:03;;;;;;;11.50;10.80;;;;;;;;;;4994116;28;20068;-52
2023/03/24 04:16:50;;;;;;;11.95;11.23;;;;;;;;;;4991924;28;20040;-53
2023/03/24 04:19:31;;;;;;;12.77;11.77;;;;;;;;;;4992743;28;20168;-52
2023/03/24 04:22:07;;;;;;;10.95;10.25;;;;;;;;;;4996512;28;20042;-53
2023/03/24 04:24:48;;;;;;;12.07;11.27;;;;;;;;;;4992235;28;20374;-51
2023/03/24 04:27:25;;;;;;;11.07;10.40;;;;;;;;;;4995653;28;20041;-53
2023/03/24 04:30:21;;;;;;;11.85;11.15;;;;;;;;;;4995521;28;20034;-53
2023/03/24 04:32:53;;;;;;;11.18;10.48;;;;;;;;;;4993036;28;20073;-53
2023/03/24 04:35:30;;;;;;;11.50;10.80;;;;;;;;;;4995176;28;20046;-49
2023/03/24 04:38:01;;;;;;;12.10;11.30;;;;;;;;;;4993285;28;20041;-52
2023/03/24 04:40:27;;;;;;;;;;;;;;;;;;4993142;28;20046;-50
2023/03/24 04:42:55;;;;;;;11.30;10.60;;;;;;;;;;4993829;28;20000;-53
2023/03/24 04:45:24;;;;;;;11.80;11.10;;;;;;;;;;4995615;28;20038;-51
2023/03/24 04:47:55;;;;;;;11.60;10.90;;;;;;;;;;4993066;28;20135;-50
2023/03/24 04:51:08;;;;;;;11.45;10.75;;;;;;;;;;4996999;28;20054;-49
2023/03/24 04:53:34;;;;;;;12.00;11.30;;;;;;;;;;4986850;28;20061;-52
2023/03/24 04:56:06;;;;;;;11.88;11.18;;;;;;;;;;4991646;28;20376;-52
2023/03/24 04:58:32;;;;;;;12.68;11.88;;;;;;;;;;4993836;28;20528;-52
2023/03/24 05:00:57;;;;;;;13.40;12.60;;;;;;;;;;4993361;28;20050;-53
2023/03/24 05:03:24;;;;;;;13.35;12.55;;;;;;;;;;4994254;28;20331;-51
2023/03/24 05:05:51;;;;;;;12.50;11.73;;;;;;;;;;4990317;28;20030;-50
2023/03/24 05:08:17;;;;;;;13.40;12.50;;;;;;;;;;4992636;28;20044;-52
2023/03/24 05:10:43;;;;;;;12.60;11.90;;;;;;;;;;4997075;28;20488;-54
2023/03/24 05:13:09;;;;;;;13.00;12.13;;;;;;;;;;4994560;28;20037;-49
2023/03/24 05:15:35;;;;;;;13.13;12.32;;;;;;;;;;4997390;28;20034;-53
2023/03/24 05:18:01;;;;;;;12.43;11.73;;;;;;;;;;4993647;28;20387;-52
2023/03/24 05:20:27;;;;;;;12.05;11.32;;;;;;;;;;4998612;28;20033;-48
2023/03/24 05:22:52;;;;;;;12.40;11.60;;;;;;;;;;4992707;28;20032;-50
2023/03/24 05:25:18;;;;;;;12.90;12.10;;;;;;;;;;4991093;28;20387;-48
2023/03/24 05:27:44;;;;;;;12.63;11.80;;;;;;;;;;4993956;28;20104;-48
2023/03/24 05:30:10;;;;;;;12.52;11.73;;;;;;;;;;4992101;28;20034;-46
2023/03/24 05:32:36;;;;;;;12.80;12.00;;;;;;;;;;4992508;28;20197;-51
2023/03/24 05:35:03;;;;;;;13.38;12.38;;;;;;;;;;4992965;28;20466;-46
2023/03/24 05:37:28;;;;;;;12.27;11.57;;;;;;;;;;4993640;28;20080;-46
2023/03/24 05:39:53;;;;;;;12.90;12.10;;;;;;;;;;4993231;28;20449;-47
2023/03/24 05:42:19;;;;;;;13.65;12.75;;;;;;;;;;4991433;28;20247;-46
2023/03/24 05:44:45;;;;;;;12.98;12.15;;;;;;;;;;4993278;28;20052;-46
2023/03/24 05:47:12;;;;;;;13.50;12.65;;;;;;;;;;4990261;28;20026;-48
2023/03/24 05:49:37;;;;;;;15.43;14.52;;;;;;;;;;5000220;28;20088;-48
2023/03/24 05:52:04;;;;;;;14.80;13.73;;;;;;;;;;5005048;28;20038;-49
2023/03/24 05:54:32;;;;;;;14.73;13.85;;;;;;;;;;5009605;28;20517;-46
2023/03/24 05:56:58;;;;;;;12.93;12.18;;;;;;;;;;4999704;28;20109;-47
2023/03/24 05:59:23;;;;;;;13.90;13.10;;;;;;;;;;4994820;28;20153;-47
2023/03/24 06:01:49;;;;;;;13.60;12.80;;;;;;;;;;4992585;28;20093;-47
2023/03/24 06:04:14;;;;;;;14.43;13.52;;;;;;;;;;4994470;28;20050;-47
2023/03/24 06:06:39;;;;;;;13.75;12.95;;;;;;;;;;4993352;28;20718;-48
2023/03/24 06:09:05;;;;;;;13.48;12.68;;;;;;;;;;4991679;28;20749;-49
2023/03/24 06:11:31;;;;;;;13.52;12.73;;;;;;;;;;4990677;28;20373;-49
2023/03/24 06:13:59;;;;;;;13.00;12.20;;;;;;;;;;4991144;28;20679;-47
2023/03/24 06:16:25;;;;;;;13.85;13.05;;;;;;;;;;4991629;28;20037;-48
2023/03/24 06:18:52;;;;;;;12.82;12.05;;;;;;;;;;4989331;28;20038;-53
2023/03/24 06:21:18;;;;;;;13.07;12.27;;;;;;;;;;4990303;28;20034;-47
2023/03/24 06:23:43;;;;;;;12.88;12.07;;;;;;;;;;4994219;28;20034;-54
2023/03/24 06:26:11;;;;;;;11.98;11.27;;;;;;;;;;4977632;28;20104;-54
2023/03/24 06:28:38;;;;;;;12.95;12.15;;;;;;;;;;4993014;28;20588;-55
2023/03/24 06:31:05;;;;;;;12.77;12.02;;;;;;;;;;4993083;28;20073;-52
2023/03/24 06:33:30;;;;;;;12.80;12.00;;;;;;;;;;4994681;28;20046;-54
2023/03/24 06:35:56;;;;;;;13.93;13.07;;;;;;;;;;4990564;28;20651;-51
2023/03/24 06:38:21;;;;;;;12.88;12.07;;;;;;;;;;4990736;28;20076;-51
2023/03/24 06:40:46;;;;;;;12.80;12.00;;;;;;;;;;4993321;28;20065;-47
2023/03/24 06:43:12;;;;;;;12.52;11.82;;;;;;;;;;5004543;28;20435;-54
2023/03/24 06:45:38;;;;;;;11.77;11.07;;;;;;;;;;4993988;28;20031;-54
2023/03/24 06:48:04;;;;;;;12.65;11.85;;;;;;;;;;4994540;28;20610;-54
2023/03/24 06:50:33;;;;;;;12.82;12.02;;;;;;;;;;4994167;28;20118;-50
2023/03/24 06:52:59;;;;;;;11.27;10.57;;;;;;;;;;4992427;28;20034;-46
2023/03/24 06:55:25;;;;;;;12.27;11.48;;;;;;;;;;4997825;28;20029;-50
2023/03/24 06:57:51;;;;;;;12.85;12.02;;;;;;;;;;4993496;28;20042;-48
2023/03/24 07:00:17;;;;;;;11.90;11.20;;;;;;;;;;4994767;28;20046;-49
2023/03/24 07:02:42;;;;;;;11.93;11.15;;;;;;;;;;4996735;28;20909;-49
2023/03/24 07:05:09;;;;;;;13.95;13.00;;;;;;;;;;4998459;28;20088;-50
2023/03/24 07:07:36;;;;;;;11.95;11.25;;;;;;;;;;4992399;28;20029;-51
2023/03/24 07:10:02;;;;;;;12.23;11.52;;;;;;;;;;4994556;28;20037;-48
2023/03/24 07:12:28;;;;;;;11.35;10.65;;;;;;;;;;5002930;28;20041;-52
2023/03/24 07:14:54;;;;;;;11.48;10.77;;;;;;;;;;4995471;28;20038;-52
2023/03/24 07:17:20;;;;;;;11.40;10.70;;;;;;;;;;4996151;28;20393;-48
2023/03/24 07:19:46;;;;;;;12.35;11.63;;;;;;;;;;4991180;28;20069;-51
2023/03/24 07:22:11;;;;;;;12.98;12.18;;;;;;;;;;4995676;28;20037;-49
2023/03/24 07:24:36;;;;;;;11.60;10.90;;;;;;;;;;4995568;28;20025;-50
2023/03/24 07:27:02;;;;;;;11.45;10.75;;;;;;;;;;4995124;28;20045;-51
2023/03/24 07:29:28;;;;;;;12.45;11.75;;;;;;;;;;4994109;28;20042;-50
2023/03/24 07:31:57;;;;;;;12.73;11.93;;;;;;;;;;4993591;28;20039;-54
2023/03/24 07:34:26;;;;;;;12.05;11.32;;;;;;;;;;4995019;28;20038;-54
2023/03/24 07:36:52;;;;;;;12.98;12.18;;;;;;;;;;4991985;28;20038;-53
2023/03/24 07:39:18;;;;;;;12.02;11.32;;;;;;;;;;4994239;28;20028;-48
2023/03/24 07:41:43;;;;;;;12.45;11.73;;;;;;;;;;4996450;28;20042;-49
2023/03/24 07:44:08;;;;;;;13.57;12.77;;;;;;;;;;5010719;28;20212;-48
2023/03/24 07:46:34;;;;;;;12.85;12.05;;;;;;;;;;4995386;28;20117;-48
2023/03/24 07:49:00;;;;;;;12.82;12.02;;;;;;;;;;4995037;28;20037;-49
2023/03/24 07:51:26;;;;;;;13.40;12.60;;;;;;;;;;4994635;28;20029;-49
2023/03/24 07:53:51;;;;;;;13.32;12.52;;;;;;;;;;4997752;28;20116;-51
2023/03/24 07:56:17;;;;;;;12.73;12.02;;;;;;;;;;4995269;28;20037;-51
2023/03/24 07:58:42;;;;;;;13.57;12.68;;;;;;;;;;4994743;28;20176;-48
2023/03/24 08:01:11;;;;;;;13.25;12.45;;;;;;;;;;4996101;28;20049;-49
2023/03/24 08:03:39;;;;;;;13.10;12.30;;;;;;;;;;4994259;28;20030;-48
2023/03/24 08:06:06;;;;;;;13.82;13.02;;;;;;;;;;4993137;28;20030;-54
2023/03/24 08:08:32;;;;;;;14.60;13.80;;;;;;;;;;4992581;28;20054;-48
2023/03/24 08:10:58;;;;;;;13.23;12.43;;;;;;;;;;4996423;28;20100;-50
2023/03/24 08:13:23;;;;;;;13.70;12.90;;;;;;;;;;4993003;28;20523;-54
2023/03/24 08:15:50;;;;;;;13.60;12.80;;;;;;;;;;4991340;28;20097;-54
2023/03/24 08:18:15;;;;;;;12.80;12.00;;;;;;;;;;4991670;28;20098;-54
2023/03/24 08:20:41;;;;;;;13.73;12.93;;;;;;;;;;5009804;28;20077;-48
2023/03/24 08:23:07;;;;;;;12.23;11.52;;;;;;;;;;4997623;28;20068;-48
2023/03/24 08:25:35;;;;;;;11.52;10.82;;;;;;;;;;4998972;28;20133;-47
2023/03/24 08:28:00;;;;;;;12.75;12.02;;;;;;;;;;4998843;28;20424;-49
2023/03/24 08:30:26;;;;;;;12.18;11.48;;;;;;;;;;4996309;28;20037;-50
2023/03/24 08:32:58;;;;;;;11.73;11.02;;;;;;;;;;4997201;28;20475;-49
2023/03/24 08:35:26;;;;;;;12.00;11.30;;;;;;;;;;4996548;28;20025;-50
2023/03/24 08:37:51;;;;;;;12.00;11.20;;;;;;;;;;4996118;28;20030;-53
2023/03/24 08:40:22;;;;;;;12.50;11.60;;;;;;;;;;4993795;28;20033;-54
2023/03/24 08:42:58;;;;;;;11.63;10.93;;;;;;;;;;4993951;28;20121;-49
2023/03/24 08:45:27;;;;;;;12.40;11.70;;;;;;;;;;4992077;28;20498;-52
2023/03/24 08:47:54;;;;;;;12.68;11.88;;;;;;;;;;4996146;28;20689;-50
2023/03/24 08:50:24;;;;;;;12.25;11.55;;;;;;;;;;4992608;28;20096;-49
2023/03/24 08:52:49;;;;;;;14.07;13.27;;;;;;;;;;4997138;28;20129;-53
2023/03/24 08:55:16;;;;;;;12.00;11.30;;;;;;;;;;4993021;28;20117;-48
2023/03/24 08:57:42;;;;;;;13.73;12.88;;;;;;;;;;4994327;28;20036;-53
2023/03/24 09:00:13;;;;;;;12.45;11.73;;;;;;;;;;4994896;28;20034;-49
2023/03/24 09:02:39;;;;;;;13.00;12.20;;;;;;;;;;4993282;28;20034;-50
2023/03/24 09:05:04;;;;;;;12.70;11.95;;;;;;;;;;4992611;28;20092;-51
2023/03/24 09:07:30;;;;;;;11.90;11.20;;;;;;;;;;4993886;28;20065;-53
2023/03/24 09:09:55;;;;;;;13.57;12.68;;;;;;;;;;4998003;28;20034;-50
2023/03/24 09:12:21;;;;;;;12.30;11.60;;;;;;;;;;4994987;28;20126;-50
2023/03/24 09:14:48;;;;;;;11.95;11.25;;;;;;;;;;4992173;28;20033;-48
2023/03/24 09:17:14;;;;;;;12.05;11.35;;;;;;;;;;4994147;28;20034;-54
2023/03/24 09:19:39;;;;;;;11.75;10.95;;;;;;;;;;5007680;28;20033;-50
2023/03/24 09:22:06;;;;;;;12.90;12.13;;;;;;;;;;4992056;28;20129;-49
2023/03/24 09:24:31;;;;;;;12.30;11.60;;;;;;;;;;4992011;28;20030;-51
2023/03/24 09:26:57;;;;;;;13.93;13.13;;;;;;;;;;4992678;28;20037;-53
2023/03/24 09:29:22;;;;;;;13.25;12.45;;;;;;;;;;4991324;28;20482;-53
2023/03/24 09:31:47;;;;;;;13.52;12.73;;;;;;;;;;4994704;28;20026;-48
2023/03/24 09:34:13;;;;;;;15.27;14.38;;;;;;;;;;4994233;28;20134;-53
2023/03/24 09:36:38;;;;;;;14.30;13.50;;;;;;;;;;4996256;28;20041;-53
2023/03/24 09:39:03;;;;;;;16.23;15.32;;;;;;;;;;4991564;28;20033;-49
2023/03/24 09:41:30;;;;;;;20.52;19.42;;;;;;;;;;4990764;28;20037;-51
2023/03/24 09:44:03;;;;;;;18.00;17.00;;;;;;;;;;4992949;28;20038;-51
2023/03/24 09:46:45;;;;;;;17.58;16.58;;;;;;;;;;4989650;28;20117;-51
2023/03/24 09:49:24;;;;;;;17.10;16.10;;;;;;;;;;4989837;28;20062;-48
2023/03/24 09:51:53;;;;;;;18.13;17.13;;;;;;;;;;4992185;28;20405;-49
2023/03/24 09:54:48;;;;;;;18.25;17.25;;;;;;;;;;4993711;28;20049;-48
2023/03/24 09:57:26;;;;;;;15.88;14.98;;;;;;;;;;4984464;28;20105;-50
2023/03/24 09:59:51;;;;;;;16.73;15.80;;;;;;;;;;4991529;28;20030;-47
2023/03/24 10:02:21;;;;;;;20.55;19.45;;;;;;;;;;4991874;28;20060;-48
2023/03/24 10:04:47;;;;;;;17.63;16.65;;;;;;;;;;4991439;28;20559;-48
2023/03/24 10:07:32;;;;;;;18.20;17.20;;;;;;;;;;4993447;28;20061;-46
2023/03/24 10:09:59;;;;;;;18.83;17.17;;;;;;;;;;4991772;28;20092;-46
2023/03/24 10:12:47;;;;;;;15.20;14.32;;;;;;;;;;4991190;28;20050;-47
2023/03/24 10:15:25;;;;;;;14.20;13.40;;;;;;;;;;4995774;28;20153;-49
2023/03/24 10:18:05;;;;;;;13.00;12.27;;;;;;;;;;4992549;28;20030;-49
2023/03/24 10:20:50;;;;;;;14.07;13.27;;;;;;;;;;4990617;28;20164;-47
2023/03/24 10:23:34;;;;;;;14.05;13.25;;;;;;;;;;4994923;28;20034;-49
2023/03/24 10:26:20;;;;;;;15.45;14.55;;;;;;;;;;4996321;28;20060;-48
2023/03/24 10:28:50;;;;;;;15.57;14.68;;;;;;;;;;4997506;28;20033;-48
2023/03/24 10:31:19;;;;;;;16.20;15.30;;;;;;;;;;4999141;28;20037;-48
2023/03/24 10:33:45;;;;;;;16.33;15.43;;;;;;;;;;4997259;28;20065;-50
2023/03/24 10:36:13;;;;;;;15.30;14.43;;;;;;;;;;4996614;28;20653;-49
2023/03/24 10:38:39;;;;;;;17.55;16.55;;;;;;;;;;4993667;28;20057;-48
2023/03/24 10:41:05;;;;;;;19.08;18.02;;;;;;;;;;5002895;28;20046;-48
2023/03/24 10:43:31;;;;;;;16.40;15.50;;;;;;;;;;4996425;28;20045;-52
2023/03/24 10:45:58;;;;;;;18.27;17.27;;;;;;;;;;4997287;28;20049;-53
2023/03/24 10:48:39;;;;;;;21.33;20.20;;;;;;;;;;4994135;28;20484;-54
2023/03/24 10:51:05;;;;;;;19.80;18.70;;;;;;;;;;4994306;28;20042;-54
2023/03/24 10:53:34;;;;;;;17.00;16.10;;;;;;;;;;4997541;28;20428;-55
2023/03/24 10:56:00;;;;;;;13.63;12.82;;;;;;;;;;4990174;28;20302;-55
2023/03/24 10:58:36;;;;;;;14.98;14.18;;;;;;;;;;4991624;28;20038;-55
2023/03/24 11:01:02;;;;;;;12.45;11.75;;;;;;;;;;4994801;28;20089;-52
2023/03/24 11:03:30;;;;;;;12.73;11.93;;;;;;;;;;4998766;28;20034;-53
2023/03/24 11:06:01;;;;;;;12.60;11.90;;;;;;;;;;5008631;28;20030;-50
2023/03/24 11:08:36;;;;;;;13.20;12.43;;;;;;;;;;4996072;28;20051;-50
2023/03/24 11:11:28;;;;;;;12.05;11.35;;;;;;;;;;4999589;28;20481;-51
2023/03/24 11:14:00;;;;;;;13.45;12.65;;;;;;;;;;4996416;28;20101;-47
2023/03/24 11:16:37;;;;;;;15.48;14.57;;;;;;;;;;5010973;28;20333;-50
2023/03/24 11:19:15;;;;;;;14.30;13.50;;;;;;;;;;4997766;28;20437;-50
2023/03/24 11:21:42;;;;;;;15.77;14.88;;;;;;;;;;4994898;28;20145;-52
2023/03/24 11:24:14;;;;;;;14.32;13.52;;;;;;;;;;4998316;28;20145;-50
2023/03/24 11:26:50;;;;;;;15.60;14.70;;;;;;;;;;4995448;28;20958;-48
2023/03/24 11:29:19;;;;;;;16.83;15.93;;;;;;;;;;4995944;28;20064;-51
2023/03/24 11:31:55;;;;;;;14.18;13.27;;;;;;;;;;4997620;28;20038;-51
2023/03/24 11:34:24;;;;;;;13.80;13.00;;;;;;;;;;4995642;28;20746;-49
2023/03/24 11:36:52;;;;;;;10.65;10.05;;;;;;;;;;4996824;28;20128;-49
2023/03/24 11:39:27;;;;;;;10.57;9.98;;;;;;;;;;4997262;28;20131;-52
2023/03/24 11:42:04;;;;;;;13.18;12.38;;;;;;;;;;4996487;28;20030;-50
2023/03/24 11:44:45;;;;;;;12.07;11.38;;;;;;;;;;4992472;28;20416;-49
2023/03/24 11:47:32;;;;;;;12.50;11.60;;;;;;;;;;4994358;28;20072;-50
2023/03/24 11:50:10;;;;;;;12.73;11.93;;;;;;;;;;4993548;28;20038;-52
2023/03/24 11:52:54;;;;;;;12.65;11.95;;;;;;;;;;4992988;28;20556;-49
2023/03/24 11:55:34;;;;;;;12.80;12.05;;;;;;;;;;4992893;28;20030;-53
2023/03/24 11:58:20;;;;;;;13.53;12.73;;;;;;;;;;4991451;28;20037;-53
2023/03/24 12:00:57;;;;;;;11.80;11.10;;;;;;;;;;4995161;28;20035;-53
2023/03/24 12:03:44;;;;;;;12.15;11.45;;;;;;;;;;4993780;28;20113;-56
2023/03/24 12:06:27;;;;;;;12.65;11.95;;;;;;;;;;4994303;28;20041;-52
2023/03/24 12:09:04;;;;;;;13.02;12.25;;;;;;;;;;4994578;28;20039;-52
2023/03/24 12:12:16;;;;;;;12.13;11.43;;;;;;;;;;4994100;28;20037;-53
2023/03/24 12:15:07;;;;;;;12.93;12.13;;;;;;;;;;4969855;28;20280;-50
2023/03/24 12:17:54;;;;;;;12.52;11.82;;;;;;;;;;4993834;28;20636;-52
2023/03/24 12:20:22;;;;;;;13.40;12.57;;;;;;;;;;4991738;28;20533;-51
2023/03/24 12:23:12;;;;;;;12.57;11.88;;;;;;;;;;4994975;28;20038;-52
2023/03/24 12:25:43;;;;;;;13.00;12.20;;;;;;;;;;4992960;28;20030;-58
2023/03/24 12:28:08;;;;;;;12.57;11.88;;;;;;;;;;4994526;28;20048;-52
2023/03/24 12:30:33;;;;;;;15.23;13.88;;;;;;;;;;4994505;28;20030;-50
2023/03/24 12:33:22;;;;;;;16.27;15.38;;;;;;;;;;4995227;28;20103;-49
2023/03/24 12:36:06;;;;;;;15.85;14.95;;;;;;;;;;4995370;28;20095;-51
2023/03/24 12:39:09;;;;;;;17.00;16.08;;;;;;;;;;4995726;28;20026;-52
2023/03/24 12:41:58;;;;;;;18.75;17.65;;;;;;;;;;4996328;28;20104;-57
2023/03/24 12:44:56;;;;;;;17.50;16.52;;;;;;;;;;4994666;28;20033;-58
2023/03/24 12:47:52;;;;;;;19.10;18.08;;;;;;;;;;4993602;28;20029;-57
2023/03/24 12:50:20;;;;;;;19.10;18.00;;;;;;;;;;4992277;28;20030;-56
2023/03/24 12:52:52;;;;;;;20.85;19.73;;;;;;;;;;4994495;28;20426;-57
2023/03/24 12:55:26;;;;;;;22.30;21.10;;;;;;;;;;5008538;28;20218;-53
2023/03/24 12:58:02;;;;;;;23.77;22.48;;;;;;;;;;4993234;28;20034;-50
2023/03/24 13:00:37;;;;;;;21.67;20.48;;;;;;;;;;4996105;28;20046;-50
2023/03/24 13:03:13;;;;;;;23.95;22.65;;;;;;;;;;4993524;28;20033;-51
2023/03/24 13:05:56;;;;;;;24.17;22.88;;;;;;;;;;4995621;28;20030;-57
2023/03/24 13:08:28;;;;;;;27.23;24.98;;;;;;;;;;4996838;28;20046;-57
2023/03/24 13:11:01;;;;;;;20.40;19.30;;;;;;;;;;4994612;28;20034;-57
2023/03/24 13:13:42;;;;;;;22.02;20.83;;;;;;;;;;4985634;28;20040;-57
2023/03/24 13:16:07;;;;;;;24.00;22.73;;;;;;;;;;4991745;28;20042;-58
2023/03/24 13:18:38;;;;;;;21.00;19.90;;;;;;;;;;4994803;28;20672;-51
2023/03/24 13:21:10;;;;;;;18.88;17.83;;;;;;;;;;4990942;28;20034;-57
2023/03/24 13:23:55;;;;;;;14.68;13.82;;;;;;;;;;4993963;28;20034;-49
2023/03/24 13:26:42;;;;;;;14.60;13.80;;;;;;;;;;4995148;28;20029;-56
2023/03/24 13:29:32;;;;;;;14.38;13.57;;;;;;;;;;4994009;28;20045;-57
2023/03/24 13:32:07;;;;;;;12.90;12.17;;;;;;;;;;4995745;28;20045;-59
2023/03/24 13:34:40;;;;;;;13.10;12.32;;;;;;;;;;4992605;28;20281;-58
2023/03/24 13:37:13;;;;;;;13.57;12.77;;;;;;;;;;4991854;28;20080;-51
2023/03/24 13:39:39;;;;;;;14.45;13.55;;;;;;;;;;4994909;28;20046;-51
2023/03/24 13:42:05;;;;;;;13.85;13.05;;;;;;;;;;4991192;28;20039;-57
2023/03/24 13:44:37;;;;;;;13.15;12.35;;;;;;;;;;4993728;28;20108;-57
2023/03/24 13:47:14;;;;;;;14.98;14.18;;;;;;;;;;4993055;28;20045;-51
2023/03/24 13:49:42;;;;;;;14.77;13.98;;;;;;;;;;4991075;28;20030;-52
2023/03/24 13:52:25;;;;;;;13.05;12.25;;;;;;;;;;4992615;28;20098;-53
2023/03/24 13:54:57;;;;;;;12.80;12.10;;;;;;;;;;4998337;28;20034;-57
2023/03/24 13:57:23;;;;;;;12.02;11.32;;;;;;;;;;4997134;28;20038;-57
2023/03/24 14:00:13;;;;;;;12.65;11.95;;;;;;;;;;4995369;28;20048;-52
2023/03/24 14:02:42;;;;;;;13.52;12.38;;;;;;;;;;4996206;28;20044;-56
2023/03/24 14:05:29;;;;;;;13.07;12.27;;;;;;;;;;4996100;28;20039;-57
2023/03/24 14:07:58;;;;;;;13.18;12.27;;;;;;;;;;4996790;28;20042;-59
2023/03/24 14:10:23;;;;;;;12.77;12.05;;;;;;;;;;4998680;28;20034;-58
2023/03/24 14:12:53;;;;;;;13.85;12.95;;;;;;;;;;4998190;28;20137;-52
2023/03/24 14:15:29;;;;;;;12.57;11.88;;;;;;;;;;4997402;28;20030;-53
2023/03/24 14:18:13;;;;;;;13.18;12.38;;;;;;;;;;4996424;28;20060;-51
2023/03/24 14:20:57;;;;;;;13.00;12.27;;;;;;;;;;4996806;28;20037;-58
2023/03/24 14:23:30;;;;;;;13.88;13.07;;;;;;;;;;5000215;28;20077;-53
2023/03/24 14:25:56;;;;;;;14.18;13.38;;;;;;;;;;5003066;28;20034;-49
2023/03/24 14:28:25;;;;;;;13.27;12.48;;;;;;;;;;4996546;28;20578;-52
2023/03/24 14:31:14;;;;;;;13.20;12.40;;;;;;;;;;4998336;28;20088;-54
2023/03/24 14:33:51;;;;;;;13.23;12.43;;;;;;;;;;4998513;28;20132;-53
2023/03/24 14:36:24;;;;;;;12.25;11.55;;;;;;;;;;5000708;28;20045;-51
2023/03/24 14:38:50;;;;;;;21.42;13.93;;;;;;;;;;4995267;28;20034;-58
2023/03/24 14:41:26;;;;;;;13.18;12.40;;;;;;;;;;4996865;28;20041;-57
2023/03/24 14:43:54;;;;;;;13.82;12.93;;;;;;;;;;4996779;28;20304;-59
2023/03/24 14:46:20;;;;;;;12.85;12.13;;;;;;;;;;4998092;28;20037;-51